Main page
METAR-TAF:

METAR-TAF

Airports :

Bartow Municipal Airport

Bartow, Florida, United States

latitude: 27-57N, longitude: 081-47W, elevation: 128 ft

Current weather observation

The report was made 21 minutes ago, at 12:50 UTC
Wind 5 mph from variable directions
Temperature 77°F
Humidity 94%
Pressure 30.06 in. Hg
Visibility: 3 miles
Broken clouds at a height of 500 ft
mist

METAR: KBOW 281250Z VRB04KT 3SM BR BKN005 25/24 A3006

Time: 09:11 (13:11 UTC)


TAF: missing

Weather observations and forecasts of more than 4000 airports (METAR and TAF reports).

The available stations are represented by yellow and red dots on the map.

Hover mouse over dot to see the name of the station.

Then click to see weather observations and forecasts.

To change the map : click on the green buttons with a black cross to zoom in, on the green button with a dash to zoom out, or on the green arrows for adjacent maps.


METAR-TAF: